Flight Track Log - Related Links

Times and Time Zones

All times are in EDT time to prevent confusion due to time zone crossing. See the EGF3676 flight status page for this flight to view local times or setup timezone preferences in your user account.

Time Position Orientation Groundspeed Altitude Reporting Facility
EDT Latitude Longitude Course Direction KTS MPH feet Rate Location/Type
Tue 05:42:54 PM 39.9000 -104.6833 248° West 167 192 6,500  Level Denver TRACON
Tue 05:43:19 PM 39.9242 -104.6983 335° Northwest 178 205 7,100 1,394 Climbing Denver Center
Tue 05:44:33 PM 39.9939 -104.7244 344° North 245 282 8,800 1,676 Climbing Denver Center
Tue 05:45:00 PM 39.7299 -105.0436 247° West  Level FlightAware Approximate
Tue 05:45:35 PM 40.1014 -104.7550 348° North 321 369 10,900  Level Denver Center
Tue 05:46:00 PM 39.6883 -105.1685 247° West  Level FlightAware Approximate
Tue 05:46:37 PM 40.1300 -104.8597 290° West 306 352 14,200  Level Denver Center
Tue 05:47:00 PM 39.6511 -105.2954 252° West  Level FlightAware Approximate
Tue 05:47:39 PM 40.1094 -104.9617 255° West 292 336 16,500  Level Denver Center
Tue 05:48:00 PM 39.6126 -105.4218 248° West  Level FlightAware Approximate
Tue 05:48:41 PM 40.0900 -105.0644 256° West 294 338 19,600  Level Denver Center
Tue 05:49:56 PM 40.0656 -105.1925 256° West 283 326 21,900 1,708 Climbing Denver Center
Tue 05:50:58 PM 40.0422 -105.2903 253° West 284 327 23,500 1,500 Climbing Denver Center
Tue 05:52:00 PM 40.0128 -105.3917 249° West 299 344 25,000 1,452 Climbing Denver Center
Tue 05:53:02 PM 39.9792 -105.4992 248° West 297 342 26,500 871 Climbing Denver Center
Tue 05:54:04 PM 39.9419 -105.6086 246° West 329 379 26,800 435 Climbing Denver Center
Tue 05:55:06 PM 39.8847 -105.7239 237° Southwest 358 412 27,400 532 Climbing Denver Center
Tue 05:56:08 PM 39.8158 -105.8339 231° Southwest 382 440 27,900 629 Climbing Denver Center
Tue 05:57:10 PM 39.7469 -105.9389 230° Southwest 387 445 28,700 677 Climbing Denver Center
Tue 05:58:12 PM 39.6753 -106.0492 230° Southwest 395 455 29,300 677 Climbing Denver Center
Tue 05:59:14 PM 39.6019 -106.1631 230° Southwest 401 461 30,100 871 Climbing Denver Center
Tue 06:00:16 PM 39.5317 -106.2744 231° Southwest 399 459 31,100 871 Climbing Denver Center
Tue 06:01:18 PM 39.4600 -106.3850 230° Southwest 398 458 31,900 968 Climbing Denver Center
Tue 06:02:20 PM 39.3781 -106.5097 230° Southwest 399 459 33,100 1,065 Climbing Denver Center
Tue 06:03:22 PM 39.3114 -106.6122 230° Southwest 391 450 34,100 1,016 Climbing Denver Center
Tue 06:04:24 PM 39.2356 -106.7286 230° Southwest 381 438 35,200 919 Climbing Denver Center
Tue 06:05:26 PM 39.1739 -106.8283 231° Southwest 374 430 36,000 390 Climbing Denver Center
Tue 06:06:27 PM 39.1211 -106.9111 231° Southwest 372 428 36,000  Level Denver Center
Tue 06:07:30 PM 39.0325 -107.0517 231° Southwest 394 453 36,000  Level Denver Center
Tue 06:08:32 PM 38.9511 -107.1789 231° Southwest 407 468 36,000  Level Denver Center
Tue 06:09:34 PM 38.8819 -107.2872 231° Southwest 408 470 36,000  Level Denver Center
Tue 06:10:36 PM 38.8164 -107.3928 231° Southwest 400 460 36,000  Level Denver Center
Tue 06:11:38 PM 38.7369 -107.5158 230° Southwest 400 460 36,000  Level Denver Center
Tue 06:12:40 PM 38.6694 -107.6214 231° Southwest 399 459 36,000  Level Denver Center
Tue 06:13:42 PM 38.5911 -107.7428 230° Southwest 397 457 36,000  Level Denver Center
Tue 06:14:44 PM 38.5231 -107.8467 230° Southwest 396 456 36,000  Level Denver Center
Tue 06:15:57 PM 38.4450 -107.9681 231° Southwest 395 455 36,000  Level Denver Center
Tue 06:17:00 PM 38.3650 -108.0908 230° Southwest 401 461 36,000  Level Denver Center
Tue 06:18:02 PM 38.2842 -108.2142 230° Southwest 408 470 36,000  Level Denver Center
Tue 06:19:04 PM 38.2136 -108.3203 230° Southwest 410 472 36,000  Level Denver Center
Tue 06:20:05 PM 38.1444 -108.4264 230° Southwest 409 471 36,000  Level Denver Center
Tue 06:21:08 PM 38.0550 -108.5636 230° Southwest 413 475 36,000  Level Denver Center
Tue 06:22:09 PM 37.9842 -108.6669 229° Southwest 408 470 36,000  Level Denver Center
Tue 06:23:11 PM 37.9011 -108.7911 230° Southwest 412 474 36,000  Level Denver Center
Tue 06:24:13 PM 37.8306 -108.8964 230° Southwest 411 473 36,000  Level Denver Center
Tue 06:25:15 PM 37.7817 -108.9922 237° Southwest 407 468 36,000  Level Denver Center
Tue 06:26:17 PM 37.7106 -109.1511 241° Southwest 407 468 36,000  Level Denver Center
Tue 06:27:19 PM 37.6497 -109.2908 241° Southwest 409 471 36,000  Level Denver Center
Tue 06:28:21 PM 37.5953 -109.4103 240° Southwest 411 473 36,000  Level Denver Center
Tue 06:29:23 PM 37.5417 -109.5289 240° Southwest 410 472 36,000  Level Denver Center
Tue 06:30:25 PM 37.4792 -109.6683 241° Southwest 411 473 36,000  Level Denver Center
Tue 06:31:39 PM 37.4072 -109.8267 240° Southwest 409 471 36,000  Level Denver Center
Tue 06:32:41 PM 37.3528 -109.9467 240° Southwest 413 475 36,000  Level Denver Center
Tue 06:33:43 PM 37.2892 -110.0858 240° Southwest 413 475 36,000  Level Denver Center
Tue 06:34:45 PM 37.2303 -110.2142 240° Southwest 414 476 36,000  Level Denver Center
Tue 06:35:47 PM 37.1725 -110.3392 240° Southwest 414 476 36,000  Level Denver Center
Tue 06:36:49 PM 37.1147 -110.4642 240° Southwest 416 479 36,000  Level Denver Center
Tue 06:37:51 PM 37.0572 -110.5903 240° Southwest 416 479 36,000  Level Denver Center
Tue 06:38:53 PM 36.9986 -110.7167 240° Southwest 419 482 36,000  Level Denver Center
Tue 06:39:55 PM 36.9392 -110.8425 239° Southwest 420 483 36,000  Level Denver Center
Tue 06:40:57 PM 36.8681 -110.9933 240° Southwest 420 483 36,000  Level Denver Center
Tue 06:41:59 PM 36.8072 -111.1200 239° Southwest 424 488 36,000  Level Denver Center
Tue 06:43:00 PM 36.7494 -111.2467 240° Southwest 422 486 36,000  Level Denver Center
Tue 06:44:02 PM 36.6883 -111.3725 239° Southwest 422 486 36,000  Level Denver Center
Tue 06:45:04 PM 36.6292 -111.4989 240° Southwest 423 487 36,000  Level Denver Center
Tue 06:46:06 PM 36.5681 -111.6261 239° Southwest 427 491 36,000  Level Denver Center
Tue 06:47:08 PM 36.5072 -111.7531 239° Southwest 426 490 36,000  Level Denver Center
Tue 06:48:10 PM 36.4331 -111.9075 239° Southwest 432 497 36,000  Level Denver Center
Tue 06:48:29 PM 36.4206 -111.9314 237° Southwest 425 489 36,000  Level Los Angeles Center
Tue 06:49:31 PM 36.3600 -112.0589 239° Southwest 426 490 36,000  Level Los Angeles Center
Tue 06:50:33 PM 36.2975 -112.1881 239° Southwest 432 497 36,000  Level Los Angeles Center
Tue 06:51:37 PM 36.2214 -112.3417 238° Southwest 435 501 36,000  Level Los Angeles Center
Tue 06:52:37 PM 36.1581 -112.4711 239° Southwest 438 504 36,000  Level Los Angeles Center
Tue 06:53:39 PM 36.0936 -112.6022 239° Southwest 443 510 36,000  Level Los Angeles Center
Tue 06:54:41 PM 36.0303 -112.7317 239° Southwest 440 506 36,000  Level Los Angeles Center
Tue 06:55:43 PM 35.9797 -112.8339 239° Southwest 438 504 36,000  Level Los Angeles Center
Tue 06:56:45 PM 35.8947 -113.0061 239° Southwest 440 506 36,000  Level Los Angeles Center
Tue 06:57:47 PM 35.8367 -113.1358 241° Southwest 440 506 36,000  Level Los Angeles Center
Tue 06:58:49 PM 35.7828 -113.2653 243° Southwest 434 499 36,000  Level Los Angeles Center
Tue 06:59:51 PM 35.7278 -113.3992 243° Southwest 441 507 36,000  Level Los Angeles Center
Tue 07:00:53 PM 35.6728 -113.5314 243° Southwest 441 507 36,000  Level Los Angeles Center
Tue 07:01:55 PM 35.6053 -113.6922 243° Southwest 445 512 36,000  Level Los Angeles Center
Tue 07:02:57 PM 35.5503 -113.8253 243° Southwest 442 509 36,000  Level Los Angeles Center
Tue 07:03:59 PM 35.4939 -113.9592 243° Southwest 445 512 36,000  Level Los Angeles Center
Tue 07:05:13 PM 35.4311 -114.1078 243° Southwest 444 511 36,000  Level Los Angeles Center
Tue 07:06:15 PM 35.3631 -114.2700 243° Southwest 445 512 36,000  Level Los Angeles Center
Tue 07:07:17 PM 35.3056 -114.4022 242° Southwest 441 507 36,000  Level Los Angeles Center
Tue 07:08:19 PM 35.2486 -114.5375 243° Southwest 445 512 36,000  Level Los Angeles Center
Tue 07:09:21 PM 35.2017 -114.6481 243° Southwest 451 519 36,000  Level Los Angeles Center
Tue 07:10:35 PM 35.1206 -114.8344 242° Southwest 443 510 36,000  Level Los Angeles Center
Tue 07:11:37 PM 35.0636 -114.9703 243° Southwest 447 514 36,000  Level Los Angeles Center
Tue 07:12:40 PM 34.9928 -115.1317 242° Southwest 448 516 36,000  Level Los Angeles Center
Tue 07:13:42 PM 34.9319 -115.2711 242° Southwest 447 514 36,000  Level Los Angeles Center
Tue 07:14:44 PM 34.8758 -115.3967 241° Southwest 441 507 36,000  Level Los Angeles Center
Tue 07:15:45 PM 34.8167 -115.5314 242° Southwest 446 513 36,000  Level Los Angeles Center
Tue 07:16:47 PM 34.7550 -115.6722 242° Southwest 453 521 36,000  Level Los Angeles Center
Tue 07:17:49 PM 34.6967 -115.8050 242° Southwest 450 518 36,000  Level Los Angeles Center
Tue 07:18:51 PM 34.6383 -115.9381 242° Southwest 446 513 36,000  Level Los Angeles Center
Tue 07:19:53 PM 34.5658 -116.0992 241° Southwest 452 520 36,000 -823 Level Los Angeles Center
Tue 07:20:55 PM 34.5058 -116.2319 241° Southwest 449 517 34,300 -2,032 Descending Los Angeles Center
Tue 07:21:57 PM 34.4467 -116.3653 242° Southwest 449 517 31,800 -2,146 Descending Los Angeles Center
Tue 07:22:58 PM 34.3972 -116.4728 241° Southwest 455 524 29,900 -2,226 Descending Los Angeles Center
Tue 07:24:01 PM 34.3278 -116.6256 241° Southwest 436 502 27,200 -1,872 Descending Los Angeles Center
Tue 07:25:03 PM 34.2742 -116.7453 242° Southwest 415 478 26,000 -1,452 Descending Los Angeles Center
Tue 07:26:05 PM 34.2147 -116.8733 241° Southwest 423 487 24,200 -2,683 Descending Los Angeles Center
Tue 07:27:06 PM 34.1425 -117.0308 241° Southwest 440 506 20,500 -2,634 Descending Los Angeles Center
Tue 07:28:08 PM 34.0947 -117.1356 241° Southwest 403 464 18,800 -1,781 Descending Los Angeles Center
Tue 07:29:14 PM 34.0500 -117.2833 250° West 396 456 16,700 -1,952 Descending Southern California TRACON
Tue 07:30:14 PM 34.0333 -117.4167 261° West 391 450 14,700 -2,050 Descending Southern California TRACON
Tue 07:31:14 PM 34.0167 -117.5333 260° West 331 381 12,600 -1,700 Descending Southern California TRACON
Tue 07:32:14 PM 34.0167 -117.6333 270° West 344 396 11,300 -1,300 Descending Southern California TRACON
Tue 07:33:14 PM 34.0000 -117.7167 256° West 272 313 10,000 -1,250 Descending Southern California TRACON
Tue 07:34:14 PM 34.0000 -117.8167 270° West 269 310 8,800 -1,200 Descending Southern California TRACON
Tue 07:35:14 PM 33.9833 -117.9000 256° West 264 304 7,600 -1,200 Descending Southern California TRACON
Tue 07:36:14 PM 33.9833 -117.9833 270° West 270 311 6,400 -1,289 Descending Southern California TRACON
Tue 07:37:15 PM 33.9667 -118.0667 256° West 245 282 5,000 -1,377 Descending Southern California TRACON

Login

Don't have an account? Register now (free) for customized features, flight alerts, and more!